Time;durP1;ratioP1;P1;durP2;ratioP2;P2;SDS_P1;SDS_P2;PMS_P1;PMS_P2;Temp;Humidity;BMP_temperature;BMP_pressure;BME280_temperature;BME280_humidity;BME280_pressure;Samples;Min_cycle;Max_cycle;Signal;HPM_P1;HPM_P2
2022/03/24 00:00:53;;;;;;;53.90;29.52;;;6.90;99.90;;;;;;4972936;28;20051;-73
2022/03/24 00:03:20;;;;;;;46.08;27.35;;;6.90;99.90;;;;;;4956320;29;20043;-72
2022/03/24 00:05:52;;;;;;;45.72;27.30;;;6.90;99.90;;;;;;4970484;28;20051;-73
2022/03/24 00:08:19;;;;;;;48.38;28.55;;;6.80;99.90;;;;;;4959035;28;20093;-72
2022/03/24 00:10:46;;;;;;;47.63;29.67;;;6.80;99.90;;;;;;4950228;28;20059;-74
2022/03/24 00:13:14;;;;;;;44.72;25.83;;;6.80;99.90;;;;;;4938416;29;20067;-73
2022/03/24 00:15:41;;;;;;;46.65;27.92;;;6.70;99.90;;;;;;4946025;28;20055;-72
2022/03/24 00:18:08;;;;;;;45.90;27.25;;;6.70;99.90;;;;;;4972171;28;20063;-72
2022/03/24 00:20:36;;;;;;;39.60;25.13;;;6.70;99.90;;;;;;4954145;29;20051;-72
2022/03/24 00:23:03;;;;;;;44.53;28.48;;;6.70;99.90;;;;;;4945925;29;20142;-72
2022/03/24 00:25:30;;;;;;;46.20;26.70;;;6.60;99.90;;;;;;4954923;29;20050;-72
2022/03/24 00:27:59;;;;;;;44.33;27.08;;;6.50;99.90;;;;;;4954995;29;20050;-72
2022/03/24 00:30:26;;;;;;;39.42;24.55;;;6.50;99.90;;;;;;4934741;29;20047;-72
2022/03/24 00:32:56;;;;;;;34.50;22.13;;;6.50;99.90;;;;;;4969017;28;20492;-73
2022/03/24 00:35:24;;;;;;;37.33;23.83;;;6.40;99.90;;;;;;4955298;28;20047;-72
2022/03/24 00:37:52;;;;;;;32.97;21.60;;;6.40;99.90;;;;;;4955432;29;20503;-73
2022/03/24 00:40:19;;;;;;;31.75;21.95;;;6.30;99.90;;;;;;4948034;29;20051;-72
2022/03/24 00:42:46;;;;;;;31.50;21.25;;;6.30;99.90;;;;;;4969385;28;20059;-72
2022/03/24 00:45:13;;;;;;;34.92;23.80;;;6.20;99.90;;;;;;4968675;28;20048;-72
2022/03/24 00:47:43;;;;;;;34.47;23.20;;;6.20;99.90;;;;;;4957411;28;20367;-72
2022/03/24 00:50:11;;;;;;;29.77;20.33;;;6.10;99.90;;;;;;4947505;28;20055;-73
2022/03/24 00:52:41;;;;;;;34.95;21.27;;;6.10;99.90;;;;;;4943316;29;20059;-72
2022/03/24 00:55:17;;;;;;;28.48;21.20;;;6.00;99.90;;;;;;4943439;29;20135;-72
2022/03/24 00:57:45;;;;;;;34.15;22.02;;;6.00;99.90;;;;;;4935711;29;20047;-73
2022/03/24 01:00:16;;;;;;;36.53;21.67;;;6.00;99.90;;;;;;4970521;28;20058;-72
2022/03/24 01:02:44;;;;;;;35.38;21.60;;;6.00;99.90;;;;;;4954363;29;20055;-72
2022/03/24 01:05:15;;;;;;;32.35;21.58;;;6.00;99.90;;;;;;4955696;28;20437;-72
2022/03/24 01:07:42;;;;;;;28.17;21.38;;;5.90;99.90;;;;;;4936883;29;20487;-72
2022/03/24 01:10:11;;;;;;;38.03;22.10;;;5.90;99.90;;;;;;4966820;28;20043;-73
2022/03/24 01:12:39;;;;;;;32.72;21.38;;;5.80;99.90;;;;;;4950244;29;20052;-72
2022/03/24 01:15:10;;;;;;;34.80;20.10;;;5.80;99.90;;;;;;4937602;29;20052;-72
2022/03/24 01:17:37;;;;;;;32.92;21.30;;;5.70;99.90;;;;;;4951579;28;20117;-72
2022/03/24 01:20:05;;;;;;;33.45;21.40;;;5.80;99.90;;;;;;4943865;29;20054;-72
2022/03/24 01:22:32;;;;;;;31.48;20.77;;;5.70;99.90;;;;;;4935612;29;20060;-72
2022/03/24 01:24:59;;;;;;;36.42;21.73;;;5.70;99.90;;;;;;4965639;28;20044;-72
2022/03/24 01:27:28;;;;;;;35.75;23.20;;;5.70;99.90;;;;;;4937134;29;20043;-72
2022/03/24 01:29:56;;;;;;;36.72;21.67;;;5.60;99.90;;;;;;4937806;28;20059;-72
2022/03/24 01:32:24;;;;;;;32.65;21.38;;;5.60;99.90;;;;;;4969738;28;20703;-72
2022/03/24 01:34:51;;;;;;;31.80;22.02;;;5.50;99.90;;;;;;4934386;29;20491;-72
2022/03/24 01:37:18;;;;;;;32.38;21.17;;;5.50;99.90;;;;;;4951564;28;20507;-72
2022/03/24 01:39:45;;;;;;;33.60;20.20;;;5.50;99.90;;;;;;4968925;28;20066;-72
2022/03/24 01:42:13;;;;;;;28.48;19.77;;;5.50;99.90;;;;;;4950385;29;20458;-72
2022/03/24 01:44:40;;;;;;;32.17;21.35;;;5.50;99.90;;;;;;4951735;29;20392;-71
2022/03/24 01:47:07;;;;;;;32.75;19.00;;;5.40;99.90;;;;;;4957512;28;20058;-72
2022/03/24 01:49:37;;;;;;;31.63;20.75;;;5.40;99.90;;;;;;4930475;29;20052;-73
2022/03/24 01:52:08;;;;;;;34.15;20.27;;;5.40;99.90;;;;;;4934648;29;20055;-73
2022/03/24 01:54:36;;;;;;;34.75;20.52;;;5.40;99.90;;;;;;4936062;29;20065;-72
2022/03/24 01:57:03;;;;;;;31.50;19.10;;;5.40;99.90;;;;;;4935369;29;20051;-72
2022/03/24 01:59:30;;;;;;;29.92;19.92;;;5.30;99.90;;;;;;4969383;28;20043;-73
2022/03/24 02:01:57;;;;;;;29.98;18.85;;;5.30;99.90;;;;;;4934073;29;20058;-72
2022/03/24 02:04:24;;;;;;;33.67;19.92;;;5.20;99.90;;;;;;4951576;29;20047;-72
2022/03/24 02:06:51;;;;;;;28.95;19.17;;;5.20;99.90;;;;;;4951560;29;20094;-73
2022/03/24 02:09:19;;;;;;;28.75;18.13;;;5.10;99.90;;;;;;4952160;28;20043;-73
2022/03/24 02:11:46;;;;;;;27.58;18.63;;;5.10;99.90;;;;;;4951852;29;20051;-72
2022/03/24 02:14:14;;;;;;;29.52;20.00;;;5.00;99.90;;;;;;4967219;28;20062;-73
2022/03/24 02:16:41;;;;;;;34.70;20.65;;;5.00;99.90;;;;;;4935681;28;20043;-72
2022/03/24 02:19:12;;;;;;;32.88;18.85;;;5.00;99.90;;;;;;4957591;28;20126;-72
2022/03/24 02:21:40;;;;;;;31.08;18.02;;;5.00;99.90;;;;;;4950423;29;20765;-73
2022/03/24 02:24:07;;;;;;;33.17;18.83;;;5.00;99.90;;;;;;4952827;29;20473;-72
2022/03/24 02:26:35;;;;;;;31.15;19.48;;;5.00;99.90;;;;;;4952703;29;20057;-73
2022/03/24 02:29:08;;;;;;;30.85;19.52;;;5.00;99.90;;;;;;4952580;29;20051;-72
2022/03/24 02:31:37;;;;;;;25.17;17.25;;;4.90;99.90;;;;;;4967366;28;20051;-72
2022/03/24 02:36:51;;;;;;;30.95;18.25;;;4.90;99.90;;;;;;4928014;29;20091;-72
2022/03/24 02:39:19;;;;;;;28.17;19.30;;;4.90;99.90;;;;;;4965984;28;20047;-72
2022/03/24 02:41:51;;;;;;;34.50;20.35;;;4.80;99.90;;;;;;4921833;29;20058;-72
2022/03/24 02:44:22;;;;;;;26.17;19.00;;;4.80;99.90;;;;;;4934027;29;20055;-72
2022/03/24 02:46:50;;;;;;;28.30;17.88;;;4.80;99.90;;;;;;4955407;28;20054;-72
2022/03/24 02:49:18;;;;;;;29.88;19.50;;;4.80;99.90;;;;;;4934240;29;20043;-72
2022/03/24 02:51:45;;;;;;;29.08;18.33;;;4.80;99.90;;;;;;4936426;29;20066;-72
2022/03/24 02:54:12;;;;;;;31.60;20.63;;;4.80;99.90;;;;;;4946766;29;20040;-72
2022/03/24 02:56:42;;;;;;;27.42;18.95;;;4.80;99.90;;;;;;4936756;29;20567;-72
2022/03/24 02:59:10;;;;;;;32.70;19.52;;;4.70;99.90;;;;;;4965139;28;20070;-74
2022/03/24 03:01:38;;;;;;;29.23;18.13;;;4.70;99.90;;;;;;4964624;28;20063;-72
2022/03/24 03:04:06;;;;;;;25.90;17.98;;;4.70;99.90;;;;;;4948549;29;20079;-72
2022/03/24 03:06:33;;;;;;;26.63;17.58;;;4.60;99.90;;;;;;4939770;29;20089;-72
2022/03/24 03:09:01;;;;;;;28.60;18.83;;;4.60;99.90;;;;;;4945241;29;20047;-72
2022/03/24 03:11:30;;;;;;;29.70;18.75;;;4.50;99.90;;;;;;4952237;28;20055;-72
2022/03/24 03:13:58;;;;;;;26.83;17.90;;;4.50;99.90;;;;;;4952350;28;20051;-72
2022/03/24 03:16:25;;;;;;;33.72;20.13;;;4.50;99.90;;;;;;4936897;29;20063;-72
2022/03/24 03:18:53;;;;;;;31.38;19.23;;;4.40;99.90;;;;;;4945874;29;20065;-71
2022/03/24 03:21:21;;;;;;;28.30;16.95;;;4.40;99.90;;;;;;4942023;28;20047;-72
2022/03/24 03:23:48;;;;;;;27.52;17.08;;;4.40;99.90;;;;;;4943814;29;20082;-72
2022/03/24 03:26:19;;;;;;;24.27;16.10;;;4.40;99.90;;;;;;4941091;28;20051;-72
2022/03/24 03:28:46;;;;;;;27.48;17.48;;;4.30;99.90;;;;;;4935121;28;20052;-72
2022/03/24 03:31:13;;;;;;;25.58;16.67;;;4.30;99.90;;;;;;4964217;28;20039;-71
2022/03/24 03:33:40;;;;;;;24.10;16.40;;;4.30;99.90;;;;;;4948215;29;20127;-72
2022/03/24 03:36:07;;;;;;;26.23;17.30;;;4.30;99.90;;;;;;4944036;29;20098;-71
2022/03/24 03:38:34;;;;;;;25.35;17.42;;;4.20;99.90;;;;;;4962447;28;20051;-72
2022/03/24 03:41:02;;;;;;;26.48;17.95;;;4.20;99.90;;;;;;4952509;28;20455;-71
2022/03/24 03:43:29;;;;;;;27.80;18.05;;;4.10;99.90;;;;;;4946405;28;20055;-72
2022/03/24 03:45:56;;;;;;;24.60;17.27;;;4.10;99.90;;;;;;4937661;29;20059;-71
2022/03/24 03:48:24;;;;;;;24.92;17.85;;;4.10;99.90;;;;;;4961305;28;20432;-72
2022/03/24 03:50:51;;;;;;;25.65;16.58;;;4.10;99.90;;;;;;4960059;28;20072;-72
2022/03/24 03:53:18;;;;;;;30.45;17.92;;;4.00;99.90;;;;;;4963102;28;20055;-71
2022/03/24 03:55:45;;;;;;;22.45;16.13;;;4.00;99.90;;;;;;4955265;28;20047;-72
2022/03/24 03:58:12;;;;;;;22.90;15.23;;;4.00;99.90;;;;;;4942470;29;20512;-71
2022/03/24 04:00:55;;;;;;;23.52;17.13;;;4.00;99.90;;;;;;4953982;28;20055;-72
2022/03/24 04:03:24;;;;;;;26.92;17.52;;;3.90;99.90;;;;;;4939619;29;20079;-72
2022/03/24 04:05:52;;;;;;;27.10;17.83;;;3.90;99.90;;;;;;4953157;28;20146;-72
2022/03/24 04:08:20;;;;;;;25.65;16.63;;;3.90;99.90;;;;;;4942347;29;20452;-71
2022/03/24 04:10:48;;;;;;;22.30;15.30;;;3.90;99.90;;;;;;4953589;29;20047;-71
2022/03/24 04:13:19;;;;;;;26.33;16.45;;;3.90;99.90;;;;;;4953270;29;20047;-71
2022/03/24 04:15:46;;;;;;;27.23;17.30;;;3.90;99.90;;;;;;4942019;29;20114;-72
2022/03/24 04:18:13;;;;;;;23.50;16.52;;;3.80;99.90;;;;;;4965865;28;20106;-72
2022/03/24 04:20:40;;;;;;;25.30;16.35;;;3.80;99.90;;;;;;4941519;29;20102;-71
2022/03/24 04:23:09;;;;;;;28.85;18.73;;;3.80;99.90;;;;;;4938014;29;20039;-71
2022/03/24 04:25:36;;;;;;;28.90;18.88;;;3.70;99.90;;;;;;4969730;28;20043;-71
2022/03/24 04:28:04;;;;;;;24.48;15.85;;;3.70;99.90;;;;;;4954180;29;20122;-72
2022/03/24 04:30:31;;;;;;;28.73;17.27;;;3.60;99.90;;;;;;4948676;28;20055;-72
2022/03/24 04:32:58;;;;;;;22.42;16.92;;;3.60;99.90;;;;;;4963438;28;20055;-71
2022/03/24 04:35:26;;;;;;;30.75;19.02;;;3.60;99.90;;;;;;4951374;29;20055;-72
2022/03/24 04:37:53;;;;;;;20.38;14.77;;;3.60;99.90;;;;;;4954087;28;20436;-71
2022/03/24 04:40:20;;;;;;;23.92;16.40;;;3.50;99.90;;;;;;4946730;29;20059;-71
2022/03/24 04:42:49;;;;;;;24.95;15.85;;;3.50;99.90;;;;;;4953603;29;20506;-72
2022/03/24 04:45:17;;;;;;;;;;;3.50;99.90;;;;;;4943580;29;20051;-71
2022/03/24 04:47:45;;;;;;;23.98;15.68;;;3.40;99.90;;;;;;4956817;28;20005;-71
2022/03/24 04:50:12;;;;;;;19.70;13.95;;;3.40;99.90;;;;;;4951881;29;20066;-71
2022/03/24 04:52:39;;;;;;;24.10;15.57;;;3.40;99.90;;;;;;4948354;29;20078;-71
2022/03/24 04:55:09;;;;;;;22.80;15.88;;;3.30;99.90;;;;;;4942386;28;20070;-71
2022/03/24 04:57:36;;;;;;;24.15;15.43;;;3.30;99.90;;;;;;4954542;28;20051;-71
2022/03/24 05:00:04;;;;;;;27.45;17.20;;;3.30;99.90;;;;;;4960284;28;20047;-72
2022/03/24 05:02:31;;;;;;;26.13;17.73;;;3.30;99.90;;;;;;4947420;29;20043;-72
2022/03/24 05:04:58;;;;;;;22.52;14.93;;;3.30;99.90;;;;;;4935040;29;20110;-71
2022/03/24 05:07:26;;;;;;;23.42;14.23;;;3.20;99.90;;;;;;4956975;28;20051;-71
2022/03/24 05:09:53;;;;;;;31.40;18.40;;;3.20;99.90;;;;;;4954424;28;20051;-71
2022/03/24 05:12:20;;;;;;;25.80;17.20;;;3.20;99.90;;;;;;4950926;29;20044;-71
2022/03/24 05:14:49;;;;;;;24.95;16.30;;;3.20;99.90;;;;;;4942866;29;20058;-72
2022/03/24 05:17:16;;;;;;;24.17;15.80;;;3.20;99.90;;;;;;4943886;28;20414;-71
2022/03/24 05:19:45;;;;;;;23.48;14.88;;;3.10;99.90;;;;;;4948466;28;20154;-72
2022/03/24 05:22:12;;;;;;;25.77;15.48;;;3.10;99.90;;;;;;4964786;28;20444;-72
2022/03/24 05:24:40;;;;;;;24.63;14.77;;;3.00;99.90;;;;;;4951341;28;20047;-71
2022/03/24 05:27:08;;;;;;;23.60;16.17;;;3.10;99.90;;;;;;4933647;29;20419;-71
2022/03/24 05:29:35;;;;;;;20.95;14.88;;;3.10;99.90;;;;;;4938045;29;20058;-71
2022/03/24 05:32:04;;;;;;;25.73;16.02;;;3.00;99.90;;;;;;4953518;29;20055;-71
2022/03/24 05:34:32;;;;;;;27.40;16.25;;;3.00;99.90;;;;;;4943120;28;20055;-71
2022/03/24 05:36:59;;;;;;;23.17;16.23;;;3.00;99.90;;;;;;4968264;28;20050;-71
2022/03/24 05:39:26;;;;;;;23.00;16.02;;;3.00;99.90;;;;;;4935045;29;20047;-71
2022/03/24 05:41:53;;;;;;;20.35;14.48;;;3.00;99.90;;;;;;4933688;29;20048;-71
2022/03/24 05:44:19;;;;;;;22.60;15.70;;;3.00;99.90;;;;;;4966188;28;20062;-71
2022/03/24 05:46:47;;;;;;;25.42;15.88;;;3.00;99.90;;;;;;4948569;28;20050;-71
2022/03/24 05:49:16;;;;;;;23.85;16.55;;;3.00;99.90;;;;;;4952665;29;20114;-71
2022/03/24 05:51:43;;;;;;;24.85;16.13;;;3.00;99.90;;;;;;4941912;29;20051;-72
2022/03/24 05:54:11;;;;;;;25.20;16.45;;;3.00;99.90;;;;;;4966778;28;20043;-71
2022/03/24 05:56:38;;;;;;;22.88;15.90;;;3.00;99.90;;;;;;4962294;28;20059;-71
2022/03/24 05:59:06;;;;;;;22.77;16.40;;;2.90;99.90;;;;;;4953250;28;20053;-72
2022/03/24 06:01:33;;;;;;;25.23;16.30;;;2.90;99.90;;;;;;4951977;29;20047;-71
2022/03/24 06:04:01;;;;;;;23.63;15.38;;;2.90;99.90;;;;;;4952622;29;20522;-72
2022/03/24 06:06:28;;;;;;;22.48;15.27;;;2.90;99.90;;;;;;4945825;29;20050;-71
2022/03/24 06:08:57;;;;;;;24.35;16.45;;;2.90;99.90;;;;;;4937278;29;20044;-71
2022/03/24 06:11:25;;;;;;;28.83;18.50;;;2.90;99.90;;;;;;4933014;29;20412;-71
2022/03/24 06:13:53;;;;;;;22.00;14.55;;;2.90;99.90;;;;;;4952328;29;20051;-71
2022/03/24 06:16:21;;;;;;;23.80;16.30;;;2.90;99.90;;;;;;4967038;28;20110;-71
2022/03/24 06:18:49;;;;;;;20.60;13.85;;;2.90;99.90;;;;;;4962980;28;20064;-71
2022/03/24 06:21:18;;;;;;;28.15;16.25;;;2.90;99.90;;;;;;4951624;29;20071;-71
2022/03/24 06:23:45;;;;;;;23.13;14.43;;;2.90;99.90;;;;;;4937873;29;20439;-71
2022/03/24 06:26:12;;;;;;;24.00;15.05;;;2.90;99.90;;;;;;4942693;29;20058;-71
2022/03/24 06:28:41;;;;;;;22.38;16.30;;;3.00;99.90;;;;;;4951266;29;20057;-71
2022/03/24 06:31:08;;;;;;;21.90;15.95;;;3.00;99.90;;;;;;4966637;28;20130;-71
2022/03/24 06:33:35;;;;;;;22.35;15.20;;;3.10;99.90;;;;;;4953536;28;20063;-71
2022/03/24 06:36:02;;;;;;;24.15;15.30;;;3.10;99.90;;;;;;4948884;29;20043;-71
2022/03/24 06:38:29;;;;;;;21.20;15.57;;;3.20;99.90;;;;;;4962612;28;20070;-71
2022/03/24 06:40:57;;;;;;;25.80;16.70;;;3.20;99.90;;;;;;4937782;29;20059;-71
2022/03/24 06:43:25;;;;;;;26.05;15.45;;;3.20;99.90;;;;;;4941348;29;20071;-71
2022/03/24 06:45:52;;;;;;;24.60;15.40;;;3.30;99.90;;;;;;4952316;29;20043;-70
2022/03/24 06:48:19;;;;;;;19.33;14.23;;;3.40;99.90;;;;;;4954182;28;20047;-69
2022/03/24 06:50:45;;;;;;;20.85;13.43;;;3.40;99.90;;;;;;4942307;29;20051;-72
2022/03/24 06:53:12;;;;;;;384.65;267.70;;;3.50;99.90;;;;;;4951933;29;20058;-72
2022/03/24 06:55:39;;;;;;;134.07;84.05;;;3.60;99.90;;;;;;4939915;29;20059;-70
2022/03/24 06:58:06;;;;;;;98.63;64.90;;;3.70;99.90;;;;;;4959189;28;20053;-76
2022/03/24 07:00:33;;;;;;;56.53;37.53;;;3.70;99.90;;;;;;4943160;29;20054;-70
2022/03/24 07:03:01;;;;;;;27.98;19.05;;;3.80;99.90;;;;;;4964117;28;20057;-72
2022/03/24 07:05:29;;;;;;;24.25;15.13;;;3.80;99.90;;;;;;4943087;29;20062;-75
2022/03/24 07:07:57;;;;;;;19.73;13.57;;;3.90;99.90;;;;;;4950304;29;20043;-73
2022/03/24 07:10:24;;;;;;;18.55;13.48;;;4.00;99.90;;;;;;4940489;29;20055;-71
2022/03/24 07:12:52;;;;;;;15.55;10.60;;;4.10;99.90;;;;;;4917947;29;20090;-71
2022/03/24 07:15:19;;;;;;;14.35;10.25;;;4.10;99.90;;;;;;4950357;29;20059;-74
2022/03/24 07:17:47;;;;;;;672.97;426.60;;;4.20;99.90;;;;;;4946755;28;20061;-70
2022/03/24 07:20:15;;;;;;;178.98;112.70;;;4.30;99.90;;;;;;4955036;28;20051;-71
2022/03/24 07:22:42;;;;;;;85.75;50.88;;;4.40;99.90;;;;;;4937449;28;20114;-71
2022/03/24 07:25:09;;;;;;;44.95;25.15;;;4.50;99.90;;;;;;4925392;29;20054;-72
2022/03/24 07:27:37;;;;;;;77.97;48.65;;;4.70;99.90;;;;;;4949537;28;20051;-74
2022/03/24 07:30:04;;;;;;;59.38;39.63;;;4.70;99.90;;;;;;4966549;28;20809;-72
2022/03/24 07:32:32;;;;;;;30.90;22.38;;;4.90;99.90;;;;;;4935894;29;20055;-72
2022/03/24 07:34:59;;;;;;;23.52;16.33;;;5.00;99.90;;;;;;4949879;29;20518;-70
2022/03/24 07:37:27;;;;;;;21.98;16.23;;;5.10;99.90;;;;;;4933736;29;20047;-73
2022/03/24 07:39:55;;;;;;;23.25;16.17;;;5.20;99.90;;;;;;4969506;28;20770;-72
2022/03/24 07:42:25;;;;;;;19.20;14.07;;;5.30;99.90;;;;;;4953788;29;20058;-71
2022/03/24 07:45:01;;;;;;;25.65;15.80;;;5.40;99.90;;;;;;4943058;28;20488;-71
2022/03/24 07:47:38;;;;;;;22.13;14.90;;;5.50;99.90;;;;;;4937585;29;20051;-71
2022/03/24 07:50:22;;;;;;;24.58;16.10;;;5.50;99.90;;;;;;4958034;28;20078;-70
2022/03/24 07:53:38;;;;;;;26.15;16.17;;;5.70;99.90;;;;;;4948765;29;20066;-65
2022/03/24 07:56:08;;;;;;;24.70;16.08;;;5.90;99.90;;;;;;4926815;29;20050;-72
2022/03/24 07:58:36;;;;;;;22.38;17.85;;;6.10;99.90;;;;;;4953408;29;20059;-72
2022/03/24 08:01:45;;;;;;;27.67;19.27;;;6.30;99.90;;;;;;4954538;28;20047;-76
2022/03/24 08:04:12;;;;;;;31.67;19.05;;;6.40;99.70;;;;;;4920424;29;20091;-72
2022/03/24 08:06:59;;;;;;;26.23;16.88;;;6.50;99.90;;;;;;4952021;29;20143;-72
2022/03/24 08:09:31;;;;;;;21.35;15.93;;;6.60;97.70;;;;;;4934402;29;20050;-72
2022/03/24 08:12:15;;;;;;;19.73;15.82;;;6.70;98.00;;;;;;4952273;29;20130;-70
2022/03/24 08:14:42;;;;;;;22.67;16.23;;;6.80;96.70;;;;;;4952984;29;20051;-72
2022/03/24 08:17:29;;;;;;;20.85;16.00;;;6.90;97.00;;;;;;4961496;28;20057;-69
2022/03/24 08:20:07;;;;;;;23.13;17.20;;;7.10;95.50;;;;;;4973469;28;20113;-72
2022/03/24 08:22:36;;;;;;;39.90;21.05;;;7.30;94.20;;;;;;4954707;28;20169;-67
2022/03/24 08:25:09;;;;;;;30.42;18.20;;;7.50;93.00;;;;;;4953741;28;20406;-72
2022/03/24 08:27:37;;;;;;;32.50;18.92;;;7.70;92.10;;;;;;4956580;28;20047;-72
2022/03/24 08:30:15;;;;;;;33.47;19.98;;;7.80;91.90;;;;;;4946481;28;20056;-72
2022/03/24 08:32:43;;;;;;;30.02;18.42;;;7.90;92.90;;;;;;4935480;28;20086;-70
2022/03/24 08:35:11;;;;;;;30.42;19.20;;;8.00;91.80;;;;;;4946427;29;20058;-72
2022/03/24 08:37:40;;;;;;;30.92;18.77;;;8.10;92.00;;;;;;4947433;29;20518;-72
2022/03/24 08:40:11;;;;;;;128.80;92.50;;;8.20;91.50;;;;;;4941768;29;20412;-68
2022/03/24 08:42:40;;;;;;;40.22;27.17;;;8.30;91.40;;;;;;4952161;29;20458;-71
2022/03/24 08:45:09;;;;;;;31.13;23.23;;;8.40;91.60;;;;;;4946425;29;20058;-71
2022/03/24 08:47:40;;;;;;;30.90;19.42;;;8.50;92.50;;;;;;4955343;28;20058;-69
2022/03/24 08:50:07;;;;;;;27.30;18.67;;;8.60;91.70;;;;;;4954736;28;20040;-71
2022/03/24 08:52:35;;;;;;;34.78;18.67;;;8.70;91.00;;;;;;4969172;28;20073;-74
2022/03/24 08:55:06;;;;;;;25.23;17.95;;;8.80;89.30;;;;;;4943565;29;20043;-78
2022/03/24 08:57:34;;;;;;;25.30;18.20;;;9.00;87.20;;;;;;4954026;29;20492;-78
2022/03/24 09:00:12;;;;;;;31.45;18.75;;;9.10;87.60;;;;;;4939812;29;20114;-78
2022/03/24 09:02:42;;;;;;;27.23;18.77;;;9.40;84.10;;;;;;4970166;28;20138;-78
2022/03/24 09:05:09;;;;;;;25.35;19.17;;;9.60;82.70;;;;;;4955595;29;20554;-78
2022/03/24 09:07:37;;;;;;;28.75;19.48;;;9.80;83.80;;;;;;4956577;28;20097;-78
2022/03/24 09:10:06;;;;;;;29.27;18.48;;;9.90;82.80;;;;;;4938632;29;20543;-80
2022/03/24 09:12:37;;;;;;;34.30;20.38;;;10.00;82.80;;;;;;4954591;28;20082;-79
2022/03/24 09:15:05;;;;;;;;;;;10.10;81.10;;;;;;4939411;29;20098;-78
2022/03/24 09:17:35;;;;;;;35.63;20.38;;;10.10;76.20;;;;;;4938213;29;19940;-79
2022/03/24 09:20:12;;;;;;;30.20;19.95;;;10.10;79.70;;;;;;4955663;29;20054;-77
2022/03/24 09:22:41;;;;;;;29.88;19.08;;;10.20;79.80;;;;;;4955877;28;20519;-77
2022/03/24 09:25:09;;;;;;;29.45;17.90;;;10.20;80.00;;;;;;4923379;29;20118;-77
2022/03/24 09:27:36;;;;;;;28.33;19.63;;;10.30;80.70;;;;;;4938617;29;20047;-78
2022/03/24 09:30:04;;;;;;;33.22;19.42;;;10.40;78.50;;;;;;4953726;29;20082;-79
2022/03/24 09:32:33;;;;;;;27.45;17.88;;;10.60;76.20;;;;;;4938585;29;20062;-77
2022/03/24 09:35:01;;;;;;;32.63;19.75;;;10.80;75.70;;;;;;4953823;29;20138;-78
2022/03/24 09:37:32;;;;;;;28.02;18.30;;;10.90;76.30;;;;;;4954621;29;20428;-77
2022/03/24 09:40:03;;;;;;;27.83;16.75;;;11.00;76.20;;;;;;4954149;29;20106;-78
2022/03/24 09:42:32;;;;;;;25.65;17.90;;;11.00;76.40;;;;;;4964198;28;20410;-78
2022/03/24 09:45:03;;;;;;;27.55;17.05;;;11.00;75.20;;;;;;4957422;28;20051;-77
2022/03/24 09:47:30;;;;;;;29.13;18.98;;;11.00;74.90;;;;;;4973799;28;20411;-77
2022/03/24 09:50:00;;;;;;;29.90;17.95;;;11.00;74.40;;;;;;4957596;28;20394;-76
2022/03/24 09:52:28;;;;;;;25.67;17.20;;;11.10;74.90;;;;;;4971103;28;20054;-78
2022/03/24 09:54:55;;;;;;;27.95;18.30;;;11.20;76.00;;;;;;4955131;28;20090;-77
2022/03/24 09:57:23;;;;;;;28.73;18.13;;;11.50;73.30;;;;;;4956084;28;20070;-77
2022/03/24 09:59:50;;;;;;;30.85;19.55;;;11.60;72.50;;;;;;4919591;29;20162;-77
2022/03/24 10:02:17;;;;;;;30.75;19.00;;;11.60;72.90;;;;;;4953805;29;20047;-77
2022/03/24 10:04:45;;;;;;;24.98;17.83;;;11.90;73.90;;;;;;4951295;29;20133;-78
2022/03/24 10:07:15;;;;;;;28.42;18.98;;;12.10;71.30;;;;;;4954973;28;20226;-78
2022/03/24 10:09:48;;;;;;;32.10;19.75;;;12.30;71.00;;;;;;4938420;29;20059;-78
2022/03/24 10:12:23;;;;;;;30.85;19.27;;;12.60;69.60;;;;;;4937664;29;20683;-77
2022/03/24 10:15:05;;;;;;;29.52;18.75;;;12.90;66.00;;;;;;4953619;29;20510;-78
2022/03/24 10:17:34;;;;;;;28.23;17.23;;;13.10;62.30;;;;;;4937844;29;20051;-78
2022/03/24 10:20:08;;;;;;;32.35;19.35;;;13.20;63.90;;;;;;4953250;29;20055;-77
2022/03/24 10:22:38;;;;;;;23.55;16.02;;;13.30;62.70;;;;;;4953554;29;20498;-78
2022/03/24 10:25:19;;;;;;;25.35;16.83;;;13.40;61.40;;;;;;4937633;29;20491;-78
2022/03/24 10:28:00;;;;;;;17.20;12.52;;;13.40;58.60;;;;;;4933897;29;20146;-78
2022/03/24 10:30:28;;;;;;;18.75;13.30;;;13.50;57.30;;;;;;4934657;29;20055;-78
2022/03/24 10:32:56;;;;;;;17.42;11.88;;;13.60;56.20;;;;;;4918774;29;20411;-78
2022/03/24 10:35:23;;;;;;;20.02;11.27;;;13.70;56.80;;;;;;4918574;29;20051;-79
2022/03/24 10:37:51;;;;;;;16.42;10.70;;;13.60;56.40;;;;;;4902934;29;20138;-78
2022/03/24 10:40:18;;;;;;;14.20;10.30;;;13.80;56.00;;;;;;4946466;29;20106;-78
2022/03/24 10:42:45;;;;;;;19.33;11.10;;;13.80;54.70;;;;;;4946378;29;20517;-78
2022/03/24 10:45:17;;;;;;;19.30;12.23;;;13.90;55.80;;;;;;4954701;28;20059;-78
2022/03/24 10:48:05;;;;;;;15.63;13.10;;;13.90;56.00;;;;;;4963323;28;20062;-79
2022/03/24 10:50:40;;;;;;;19.75;11.90;;;13.90;53.50;;;;;;4953854;29;20043;-77
2022/03/24 10:53:10;;;;;;;16.88;12.05;;;14.00;53.90;;;;;;4955229;28;20047;-77
2022/03/24 10:55:44;;;;;;;20.38;12.60;;;14.20;53.90;;;;;;4958529;28;20476;-77
2022/03/24 10:58:28;;;;;;;16.02;11.20;;;14.20;53.40;;;;;;4958458;28;20103;-77
2022/03/24 11:00:57;;;;;;;17.25;12.10;;;14.30;53.30;;;;;;4957101;29;20049;-77
2022/03/24 11:03:25;;;;;;;22.02;11.50;;;14.40;53.00;;;;;;4925336;29;20689;-77
2022/03/24 11:06:03;;;;;;;18.73;12.98;;;14.40;54.80;;;;;;4962996;28;20048;-77
2022/03/24 11:08:32;;;;;;;17.30;12.30;;;14.50;55.50;;;;;;4962691;28;20051;-78
2022/03/24 11:10:59;;;;;;;20.30;13.20;;;14.50;52.80;;;;;;4956687;29;20467;-77
2022/03/24 11:13:39;;;;;;;17.65;13.10;;;14.60;53.50;;;;;;4956700;29;20513;-78
2022/03/24 11:16:06;;;;;;;;;;;14.50;53.70;;;;;;4956817;29;20106;-78
2022/03/24 11:18:36;;;;;;;14.10;11.18;;;14.60;53.80;;;;;;4975349;28;19981;-77
2022/03/24 11:21:36;;;;;;;15.98;11.27;;;14.70;55.30;;;;;;4974891;28;20487;-79
2022/03/24 11:24:03;;;;;;;13.32;10.20;;;14.90;49.80;;;;;;4939814;29;20056;-78
2022/03/24 11:26:30;;;;;;;15.63;11.05;;;15.00;52.40;;;;;;4952818;29;20055;-77
2022/03/24 11:28:58;;;;;;;16.40;12.07;;;15.00;51.30;;;;;;4972367;28;20043;-76
2022/03/24 11:31:28;;;;;;;19.45;11.25;;;15.10;52.60;;;;;;4949845;28;20047;-77
2022/03/24 11:33:58;;;;;;;16.88;13.02;;;15.20;47.70;;;;;;4931216;29;21675;-73
2022/03/24 11:36:25;;;;;;;21.65;12.45;;;15.30;47.90;;;;;;4954568;28;20115;-74
2022/03/24 11:38:55;;;;;;;15.52;11.82;;;15.30;48.90;;;;;;4947734;28;20448;-70
2022/03/24 11:41:41;;;;;;;17.13;12.43;;;15.40;49.70;;;;;;4936478;29;20059;-72
2022/03/24 11:44:08;;;;;;;15.30;11.60;;;15.30;47.50;;;;;;4939882;29;20054;-70
2022/03/24 11:46:50;;;;;;;20.38;13.23;;;15.40;47.80;;;;;;4954838;28;20051;-72
2022/03/24 11:49:24;;;;;;;19.10;13.35;;;15.40;48.50;;;;;;4954426;29;20047;-73
2022/03/24 11:52:11;;;;;;;19.17;12.48;;;15.50;48.60;;;;;;4954528;29;20126;-74
2022/03/24 11:54:40;;;;;;;16.02;12.55;;;15.50;47.70;;;;;;4932125;29;20043;-71
2022/03/24 11:57:23;;;;;;;17.67;13.00;;;15.50;47.80;;;;;;4918147;29;20086;-69
2022/03/24 12:00:09;;;;;;;20.35;13.80;;;15.60;47.10;;;;;;4949530;29;20079;-73
2022/03/24 12:02:36;;;;;;;21.83;13.50;;;15.60;47.70;;;;;;4951594;29;20061;-71
2022/03/24 12:05:04;;;;;;;15.90;12.10;;;15.70;47.90;;;;;;4952599;28;20055;-70
2022/03/24 12:07:31;;;;;;;17.75;12.18;;;15.70;48.50;;;;;;4928556;29;20047;-71
2022/03/24 12:10:01;;;;;;;18.58;12.25;;;15.50;48.60;;;;;;4938312;29;20055;-69
2022/03/24 12:12:29;;;;;;;15.07;11.10;;;15.40;48.90;;;;;;4954354;29;20126;-71
2022/03/24 12:14:58;;;;;;;17.05;11.93;;;15.30;49.10;;;;;;4949940;28;20082;-70
2022/03/24 12:17:30;;;;;;;14.00;12.00;;;15.40;48.30;;;;;;4943023;28;20431;-71
2022/03/24 12:19:59;;;;;;;18.73;13.68;;;15.50;48.90;;;;;;4944853;28;20043;-70
2022/03/24 12:22:26;;;;;;;18.85;12.25;;;15.70;49.10;;;;;;4951242;29;20510;-71
2022/03/24 12:24:59;;;;;;;22.73;12.77;;;15.80;47.20;;;;;;4954171;28;20086;-71
2022/03/24 12:27:33;;;;;;;18.45;13.15;;;16.00;46.70;;;;;;4949285;28;20081;-70
2022/03/24 12:30:17;;;;;;;17.42;12.63;;;15.90;48.60;;;;;;4956515;28;20051;-61
2022/03/24 12:33:06;;;;;;;20.63;13.23;;;15.90;47.70;;;;;;4968596;28;20706;-66
2022/03/24 12:35:46;;;;;;;;;;;16.00;46.40;;;;;;4941003;29;20135;-62
2022/03/24 12:38:43;;;;;;;16.60;11.35;;;16.00;44.90;;;;;;4953926;29;20378;-61
2022/03/24 12:41:10;;;;;;;14.45;10.43;;;16.00;46.30;;;;;;4954370;28;20047;-62
2022/03/24 12:43:58;;;;;;;21.05;10.93;;;16.00;47.40;;;;;;4946839;28;20051;-65
2022/03/24 12:46:32;;;;;;;16.45;11.30;;;15.90;45.40;;;;;;4930616;29;20047;-66
2022/03/24 12:49:19;;;;;;;19.65;10.85;;;15.90;46.60;;;;;;4948778;28;20090;-65
2022/03/24 12:51:50;;;;;;;15.23;11.25;;;15.80;45.10;;;;;;4937490;29;20052;-64